sensor_id;sensor_type;location;lat;lon;timestamp;pressure;altitude;pressure_sealevel;temperature;humidity
6433;BME280;3249;42.690;23.260;2023-02-11T00:02:05;95951.66;;;-3.39;91.24
6433;BME280;3249;42.690;23.260;2023-02-11T00:04:34;95964.78;;;-3.34;91.17
6433;BME280;3249;42.690;23.260;2023-02-11T00:07:05;95964.94;;;-3.37;91.95
6433;BME280;3249;42.690;23.260;2023-02-11T00:09:34;95953.44;;;-3.41;91.44
6433;BME280;3249;42.690;23.260;2023-02-11T00:12:03;95968.53;;;-3.41;90.33
6433;BME280;3249;42.690;23.260;2023-02-11T00:14:32;95946.00;;;-3.56;90.18
6433;BME280;3249;42.690;23.260;2023-02-11T00:17:01;95896.88;;;-3.90;90.45
6433;BME280;3249;42.690;23.260;2023-02-11T00:19:30;95969.91;;;-3.49;89.76
6433;BME280;3249;42.690;23.260;2023-02-11T00:21:59;95956.16;;;-3.58;89.70
6433;BME280;3249;42.690;23.260;2023-02-11T00:24:31;95969.78;;;-3.48;89.95
6433;BME280;3249;42.690;23.260;2023-02-11T00:27:00;95959.19;;;-3.53;89.66
6433;BME280;3249;42.690;23.260;2023-02-11T00:29:29;95961.88;;;-3.56;89.77
6433;BME280;3249;42.690;23.260;2023-02-11T00:31:58;95920.56;;;-3.80;89.52
6433;BME280;3249;42.690;23.260;2023-02-11T00:34:30;95879.34;;;-4.05;89.73
6433;BME280;3249;42.690;23.260;2023-02-11T00:37:01;95953.09;;;-3.63;89.57
6433;BME280;3249;42.690;23.260;2023-02-11T00:39:33;95954.72;;;-3.62;89.68
6433;BME280;3249;42.690;23.260;2023-02-11T00:42:02;95952.19;;;-3.62;90.28
6433;BME280;3249;42.690;23.260;2023-02-11T00:44:32;95964.53;;;-3.57;90.34
6433;BME280;3249;42.690;23.260;2023-02-11T00:47:01;95956.16;;;-3.58;90.53
6433;BME280;3249;42.690;23.260;2023-02-11T00:49:31;95933.31;;;-3.69;90.02
6433;BME280;3249;42.690;23.260;2023-02-11T00:52:02;95951.94;;;-3.57;90.69
6433;BME280;3249;42.690;23.260;2023-02-11T00:54:36;95951.28;;;-3.61;90.99
6433;BME280;3249;42.690;23.260;2023-02-11T00:57:06;95946.44;;;-3.64;90.75
6433;BME280;3249;42.690;23.260;2023-02-11T00:59:35;95948.94;;;-3.64;91.14
6433;BME280;3249;42.690;23.260;2023-02-11T01:02:05;95949.69;;;-3.62;91.31
6433;BME280;3249;42.690;23.260;2023-02-11T01:04:34;95950.69;;;-3.64;89.75
6433;BME280;3249;42.690;23.260;2023-02-11T01:07:03;95946.06;;;-3.72;89.41
6433;BME280;3249;42.690;23.260;2023-02-11T01:09:32;95937.28;;;-3.79;89.54
6433;BME280;3249;42.690;23.260;2023-02-11T01:12:04;95946.97;;;-3.73;89.53
6433;BME280;3249;42.690;23.260;2023-02-11T01:14:33;95943.75;;;-3.75;89.90
6433;BME280;3249;42.690;23.260;2023-02-11T01:17:03;95948.59;;;-3.72;89.75
6433;BME280;3249;42.690;23.260;2023-02-11T01:19:32;95943.75;;;-3.75;89.38
6433;BME280;3249;42.690;23.260;2023-02-11T01:22:01;95942.94;;;-3.75;89.83
6433;BME280;3249;42.690;23.260;2023-02-11T01:24:30;95932.88;;;-4.03;92.01
6433;BME280;3249;42.690;23.260;2023-02-11T01:26:59;95937.06;;;-4.04;93.46
6433;BME280;3249;42.690;23.260;2023-02-11T01:29:31;95936.25;;;-4.48;97.68
6433;BME280;3249;42.690;23.260;2023-02-11T01:32:00;95931.50;;;-4.52;100.00
6433;BME280;3249;42.690;23.260;2023-02-11T01:34:29;95921.78;;;-4.29;97.86
6433;BME280;3249;42.690;23.260;2023-02-11T01:36:58;95932.13;;;-4.19;95.39
6433;BME280;3249;42.690;23.260;2023-02-11T01:39:28;95923.22;;;-4.25;94.05
6433;BME280;3249;42.690;23.260;2023-02-11T01:42:00;95862.34;;;-4.58;93.29
6433;BME280;3249;42.690;23.260;2023-02-11T01:44:34;95927.09;;;-4.19;93.49
6433;BME280;3249;42.690;23.260;2023-02-11T01:47:04;95921.63;;;-4.26;93.54
6433;BME280;3249;42.690;23.260;2023-02-11T01:49:36;95918.56;;;-4.31;94.02
6433;BME280;3249;42.690;23.260;2023-02-11T01:52:09;95927.16;;;-4.35;95.00
6433;BME280;3249;42.690;23.260;2023-02-11T01:54:44;95919.97;;;-4.41;95.40
6433;BME280;3249;42.690;23.260;2023-02-11T01:57:30;95909.53;;;-4.49;95.97
6433;BME280;3249;42.690;23.260;2023-02-11T02:00:07;95927.34;;;-4.38;96.32
6433;BME280;3249;42.690;23.260;2023-02-11T02:02:47;95916.75;;;-4.43;96.71
6433;BME280;3249;42.690;23.260;2023-02-11T02:05:25;95922.63;;;-4.44;96.36
6433;BME280;3249;42.690;23.260;2023-02-11T02:08:02;95922.84;;;-4.47;95.65
6433;BME280;3249;42.690;23.260;2023-02-11T02:10:34;95928.88;;;-4.51;95.99
6433;BME280;3249;42.690;23.260;2023-02-11T02:13:05;95923.31;;;-4.56;95.67
6433;BME280;3249;42.690;23.260;2023-02-11T02:15:39;95918.38;;;-4.57;95.50
6433;BME280;3249;42.690;23.260;2023-02-11T02:18:22;95922.00;;;-4.47;95.56
6433;BME280;3249;42.690;23.260;2023-02-11T02:24:26;95918.75;;;-4.63;95.59
6433;BME280;3249;42.690;23.260;2023-02-11T02:27:10;95925.28;;;-4.61;95.81
6433;BME280;3249;42.690;23.260;2023-02-11T02:29:58;95871.44;;;-5.01;96.01
6433;BME280;3249;42.690;23.260;2023-02-11T02:32:58;95922.84;;;-4.62;96.27
6433;BME280;3249;42.690;23.260;2023-02-11T02:35:34;95918.75;;;-4.63;95.53
6433;BME280;3249;42.690;23.260;2023-02-11T02:38:10;95908.94;;;-4.68;95.68
6433;BME280;3249;42.690;23.260;2023-02-11T02:40:45;95903.91;;;-4.68;94.51
6433;BME280;3249;42.690;23.260;2023-02-11T02:43:17;95923.47;;;-4.59;94.38
6433;BME280;3249;42.690;23.260;2023-02-11T02:45:47;95918.22;;;-4.54;93.78
6433;BME280;3249;42.690;23.260;2023-02-11T02:48:27;95915.63;;;-4.53;93.88
6433;BME280;3249;42.690;23.260;2023-02-11T02:51:05;95912.38;;;-4.55;93.98
6433;BME280;3249;42.690;23.260;2023-02-11T02:53:43;95918.28;;;-4.56;94.21
6433;BME280;3249;42.690;23.260;2023-02-11T02:56:24;95913.44;;;-4.59;94.02
6433;BME280;3249;42.690;23.260;2023-02-11T02:59:12;95919.91;;;-4.55;93.94
6433;BME280;3249;42.690;23.260;2023-02-11T03:01:50;95922.53;;;-4.56;93.99
6433;BME280;3249;42.690;23.260;2023-02-11T03:04:33;95918.38;;;-4.57;94.18
6433;BME280;3249;42.690;23.260;2023-02-11T03:07:11;95917.75;;;-4.61;93.73
6433;BME280;3249;42.690;23.260;2023-02-11T03:09:45;95915.41;;;-4.64;93.82
6433;BME280;3249;42.690;23.260;2023-02-11T03:12:19;95907.88;;;-4.64;93.38
6433;BME280;3249;42.690;23.260;2023-02-11T03:14:51;95915.41;;;-4.64;93.30
6433;BME280;3249;42.690;23.260;2023-02-11T03:17:20;95914.78;;;-4.67;93.04
6433;BME280;3249;42.690;23.260;2023-02-11T03:19:55;95919.63;;;-4.64;92.91
6433;BME280;3249;42.690;23.260;2023-02-11T03:22:32;95923.84;;;-4.65;93.27
6433;BME280;3249;42.690;23.260;2023-02-11T03:25:03;95916.59;;;-4.85;94.31
6433;BME280;3249;42.690;23.260;2023-02-11T03:27:37;95915.50;;;-5.26;98.55
6433;BME280;3249;42.690;23.260;2023-02-11T03:30:12;95917.09;;;-5.41;100.00
6433;BME280;3249;42.690;23.260;2023-02-11T03:32:49;95907.59;;;-5.34;100.00
6433;BME280;3249;42.690;23.260;2023-02-11T03:35:24;95878.75;;;-5.43;100.00
6433;BME280;3249;42.690;23.260;2023-02-11T03:37:59;95915.06;;;-5.50;100.00
6433;BME280;3249;42.690;23.260;2023-02-11T03:40:31;95914.69;;;-5.27;100.00
6433;BME280;3249;42.690;23.260;2023-02-11T03:43:06;95914.91;;;-5.00;98.77
6433;BME280;3249;42.690;23.260;2023-02-11T03:45:37;95838.13;;;-5.34;96.33
6433;BME280;3249;42.690;23.260;2023-02-11T03:48:11;95914.78;;;-4.83;95.47
6433;BME280;3249;42.690;23.260;2023-02-11T03:50:45;95922.13;;;-4.94;95.79
6433;BME280;3249;42.690;23.260;2023-02-11T03:53:16;95868.78;;;-5.13;94.33
6433;BME280;3249;42.690;23.260;2023-02-11T03:55:49;95924.59;;;-4.78;93.95
6433;BME280;3249;42.690;23.260;2023-02-11T03:58:20;95919.03;;;-4.83;92.49
6433;BME280;3249;42.690;23.260;2023-02-11T04:00:49;95920.16;;;-4.89;93.07
6433;BME280;3249;42.690;23.260;2023-02-11T04:03:18;95915.97;;;-5.04;95.03
6433;BME280;3249;42.690;23.260;2023-02-11T04:05:49;95918.56;;;-5.21;97.59
6433;BME280;3249;42.690;23.260;2023-02-11T04:08:19;95920.69;;;-5.29;98.58
6433;BME280;3249;42.690;23.260;2023-02-11T04:10:48;95910.22;;;-5.53;100.00
6433;BME280;3249;42.690;23.260;2023-02-11T04:13:17;95910.56;;;-5.59;100.00
6433;BME280;3249;42.690;23.260;2023-02-11T04:15:46;95908.50;;;-5.83;100.00
6433;BME280;3249;42.690;23.260;2023-02-11T04:18:15;95909.16;;;-5.64;100.00
6433;BME280;3249;42.690;23.260;2023-02-11T04:20:43;95913.19;;;-5.77;100.00
6433;BME280;3249;42.690;23.260;2023-02-11T04:23:15;95912.31;;;-5.76;100.00
6433;BME280;3249;42.690;23.260;2023-02-11T04:25:44;95903.09;;;-5.76;100.00
6433;BME280;3249;42.690;23.260;2023-02-11T04:28:13;95904.31;;;-5.67;100.00
6433;BME280;3249;42.690;23.260;2023-02-11T04:30:42;95865.97;;;-5.85;100.00
6433;BME280;3249;42.690;23.260;2023-02-11T04:33:11;95904.06;;;-5.47;100.00
6433;BME280;3249;42.690;23.260;2023-02-11T04:35:40;95889.59;;;-5.73;100.00
6433;BME280;3249;42.690;23.260;2023-02-11T04:38:09;95904.84;;;-5.78;100.00
6433;BME280;3249;42.690;23.260;2023-02-11T04:40:41;95883.19;;;-5.79;100.00
6433;BME280;3249;42.690;23.260;2023-02-11T04:43:10;95900.09;;;-5.51;100.00
6433;BME280;3249;42.690;23.260;2023-02-11T04:45:39;95891.06;;;-5.69;100.00
6433;BME280;3249;42.690;23.260;2023-02-11T04:48:08;95897.13;;;-5.42;97.10
6433;BME280;3249;42.690;23.260;2023-02-11T04:50:37;95900.03;;;-5.65;98.54
6433;BME280;3249;42.690;23.260;2023-02-11T04:53:06;95900.94;;;-5.51;97.55
6433;BME280;3249;42.690;23.260;2023-02-11T04:55:35;95904.75;;;-5.44;96.49
6433;BME280;3249;42.690;23.260;2023-02-11T04:58:07;95904.50;;;-5.55;96.65
6433;BME280;3249;42.690;23.260;2023-02-11T05:00:36;95901.81;;;-5.52;96.33
6433;BME280;3249;42.690;23.260;2023-02-11T05:03:05;95892.34;;;-5.47;94.83
6433;BME280;3249;42.690;23.260;2023-02-11T05:05:37;95891.94;;;-5.39;93.68
6433;BME280;3249;42.690;23.260;2023-02-11T05:08:06;95840.56;;;-6.10;96.52
6433;BME280;3249;42.690;23.260;2023-02-11T05:10:35;95850.84;;;-5.99;97.75
6433;BME280;3249;42.690;23.260;2023-02-11T05:13:07;95889.59;;;-5.73;97.60
6433;BME280;3249;42.690;23.260;2023-02-11T05:15:36;95883.94;;;-5.92;100.00
6433;BME280;3249;42.690;23.260;2023-02-11T05:18:05;95884.25;;;-5.67;97.84
6433;BME280;3249;42.690;23.260;2023-02-11T05:20:36;95886.19;;;-5.57;95.89
6433;BME280;3249;42.690;23.260;2023-02-11T05:23:05;95889.66;;;-5.59;95.58
6433;BME280;3249;42.690;23.260;2023-02-11T05:25:34;95891.63;;;-5.64;95.96
6433;BME280;3249;42.690;23.260;2023-02-11T05:28:04;95890.56;;;-5.60;95.71
6433;BME280;3249;42.690;23.260;2023-02-11T05:30:35;95879.72;;;-5.61;96.57
6433;BME280;3249;42.690;23.260;2023-02-11T05:33:04;95884.72;;;-5.61;97.08
6433;BME280;3249;42.690;23.260;2023-02-11T05:35:33;95885.63;;;-5.77;97.27
6433;BME280;3249;42.690;23.260;2023-02-11T05:38:02;95878.09;;;-6.08;100.00
6433;BME280;3249;42.690;23.260;2023-02-11T05:40:31;95875.31;;;-6.19;100.00
6433;BME280;3249;42.690;23.260;2023-02-11T05:43:00;95874.94;;;-6.29;100.00
6433;BME280;3249;42.690;23.260;2023-02-11T05:45:29;95878.84;;;-6.23;100.00
6433;BME280;3249;42.690;23.260;2023-02-11T05:48:01;95872.50;;;-6.30;100.00
6433;BME280;3249;42.690;23.260;2023-02-11T05:50:30;95886.78;;;-6.15;100.00
6433;BME280;3249;42.690;23.260;2023-02-11T05:52:58;95885.53;;;-6.07;100.00
6433;BME280;3249;42.690;23.260;2023-02-11T05:55:27;95883.28;;;-5.96;100.00
6433;BME280;3249;42.690;23.260;2023-02-11T05:57:56;95857.47;;;-5.98;100.00
6433;BME280;3249;42.690;23.260;2023-02-11T06:00:25;95847.94;;;-5.91;100.00
6433;BME280;3249;42.690;23.260;2023-02-11T06:02:54;95892.09;;;-5.89;100.00
6433;BME280;3249;42.690;23.260;2023-02-11T06:05:26;95893.53;;;-6.00;100.00
6433;BME280;3249;42.690;23.260;2023-02-11T06:07:55;95864.94;;;-5.96;100.00
6433;BME280;3249;42.690;23.260;2023-02-11T06:10:24;95894.69;;;-5.59;100.00
6433;BME280;3249;42.690;23.260;2023-02-11T06:12:54;95898.81;;;-5.74;100.00
6433;BME280;3249;42.690;23.260;2023-02-11T06:15:23;95895.91;;;-5.82;100.00
6433;BME280;3249;42.690;23.260;2023-02-11T06:17:52;95900.59;;;-5.76;100.00
6433;BME280;3249;42.690;23.260;2023-02-11T06:20:21;95900.28;;;-5.54;100.00
6433;BME280;3249;42.690;23.260;2023-02-11T06:22:52;95894.13;;;-5.33;100.00
6433;BME280;3249;42.690;23.260;2023-02-11T06:25:21;95903.03;;;-5.43;100.00
6433;BME280;3249;42.690;23.260;2023-02-11T06:27:50;95906.19;;;-5.24;100.00
6433;BME280;3249;42.690;23.260;2023-02-11T06:30:19;95899.06;;;-5.16;100.00
6433;BME280;3249;42.690;23.260;2023-02-11T06:32:48;95908.66;;;-4.93;100.00
6433;BME280;3249;42.690;23.260;2023-02-11T06:35:17;95910.97;;;-5.20;100.00
6433;BME280;3249;42.690;23.260;2023-02-11T06:37:46;95895.59;;;-5.29;100.00
6433;BME280;3249;42.690;23.260;2023-02-11T06:40:17;95915.09;;;-5.19;100.00
6433;BME280;3249;42.690;23.260;2023-02-11T06:42:46;95905.75;;;-5.01;100.00
6433;BME280;3249;42.690;23.260;2023-02-11T06:45:15;95861.72;;;-5.07;100.00
6433;BME280;3249;42.690;23.260;2023-02-11T06:47:45;95910.78;;;-5.17;100.00
6433;BME280;3249;42.690;23.260;2023-02-11T06:50:14;95917.25;;;-4.97;100.00
6433;BME280;3249;42.690;23.260;2023-02-11T06:52:43;95914.66;;;-4.96;100.00
6433;BME280;3249;42.690;23.260;2023-02-11T06:55:13;95913.22;;;-5.00;100.00
6433;BME280;3249;42.690;23.260;2023-02-11T06:57:44;95919.88;;;-4.69;100.00
6433;BME280;3249;42.690;23.260;2023-02-11T07:00:14;95901.41;;;-4.68;100.00
6433;BME280;3249;42.690;23.260;2023-02-11T07:02:44;95903.28;;;-4.71;100.00
6433;BME280;3249;42.690;23.260;2023-02-11T07:05:13;95899.72;;;-4.53;100.00
6433;BME280;3249;42.690;23.260;2023-02-11T07:07:42;95907.31;;;-4.39;100.00
6433;BME280;3249;42.690;23.260;2023-02-11T07:10:12;95912.63;;;-4.16;100.00
6433;BME280;3249;42.690;23.260;2023-02-11T07:12:41;95919.31;;;-3.87;100.00
6433;BME280;3249;42.690;23.260;2023-02-11T07:15:13;95902.09;;;-3.79;99.88
6433;BME280;3249;42.690;23.260;2023-02-11T07:17:42;95906.19;;;-3.64;97.58
6433;BME280;3249;42.690;23.260;2023-02-11T07:20:11;95905.94;;;-3.59;98.06
6433;BME280;3249;42.690;23.260;2023-02-11T07:22:41;95909.53;;;-3.49;96.66
6433;BME280;3249;42.690;23.260;2023-02-11T07:25:09;95878.50;;;-3.64;92.73
6433;BME280;3249;42.690;23.260;2023-02-11T07:27:39;95911.75;;;-3.45;90.87
6433;BME280;3249;42.690;23.260;2023-02-11T07:30:15;95902.53;;;-3.32;90.68
6433;BME280;3249;42.690;23.260;2023-02-11T07:32:47;95899.53;;;-3.51;93.44
6433;BME280;3249;42.690;23.260;2023-02-11T07:35:18;95890.25;;;-3.36;92.33
6433;BME280;3249;42.690;23.260;2023-02-11T07:37:48;95893.53;;;-3.22;87.58
6433;BME280;3249;42.690;23.260;2023-02-11T07:40:17;95889.19;;;-3.06;87.87
6433;BME280;3249;42.690;23.260;2023-02-11T07:42:46;95876.56;;;-2.92;86.59
6433;BME280;3249;42.690;23.260;2023-02-11T07:45:18;95889.34;;;-2.95;86.16
6433;BME280;3249;42.690;23.260;2023-02-11T07:47:48;95833.50;;;-3.28;85.09
6433;BME280;3249;42.690;23.260;2023-02-11T07:50:17;95874.06;;;-2.79;82.84
6433;BME280;3249;42.690;23.260;2023-02-11T07:52:46;95877.94;;;-2.61;81.76
6433;BME280;3249;42.690;23.260;2023-02-11T07:55:16;95862.41;;;-3.07;86.75
6433;BME280;3249;42.690;23.260;2023-02-11T07:57:45;95882.06;;;-2.99;91.50
6433;BME280;3249;42.690;23.260;2023-02-11T08:00:20;95819.03;;;-3.65;95.54
6433;BME280;3249;42.690;23.260;2023-02-11T08:02:49;95876.16;;;-2.86;93.36
6433;BME280;3249;42.690;23.260;2023-02-11T08:05:19;95880.47;;;-2.61;89.79
6433;BME280;3249;42.690;23.260;2023-02-11T08:07:50;95883.13;;;-2.38;88.40
6433;BME280;3249;42.690;23.260;2023-02-11T08:10:20;95883.72;;;-2.47;87.55
6433;BME280;3249;42.690;23.260;2023-02-11T08:12:50;95843.72;;;-3.17;92.43
6433;BME280;3249;42.690;23.260;2023-02-11T08:15:23;95846.22;;;-3.17;94.00
6433;BME280;3249;42.690;23.260;2023-02-11T08:17:54;95869.97;;;-2.94;99.77
6433;BME280;3249;42.690;23.260;2023-02-11T08:20:23;95884.16;;;-3.06;100.00
6433;BME280;3249;42.690;23.260;2023-02-11T08:22:52;95878.75;;;-3.00;100.00
6433;BME280;3249;42.690;23.260;2023-02-11T08:25:21;95877.91;;;-2.74;100.00
6433;BME280;3249;42.690;23.260;2023-02-11T08:27:51;95878.16;;;-2.52;100.00
6433;BME280;3249;42.690;23.260;2023-02-11T08:30:23;95820.09;;;-3.02;100.00
6433;BME280;3249;42.690;23.260;2023-02-11T08:32:53;95876.69;;;-2.29;94.22
6433;BME280;3249;42.690;23.260;2023-02-11T08:35:22;95860.44;;;-2.25;91.69
6433;BME280;3249;42.690;23.260;2023-02-11T08:37:51;95877.19;;;-2.24;91.95
6433;BME280;3249;42.690;23.260;2023-02-11T08:40:20;95873.97;;;-2.26;92.74
6433;BME280;3249;42.690;23.260;2023-02-11T08:42:52;95877.28;;;-1.88;86.84
6433;BME280;3249;42.690;23.260;2023-02-11T08:45:24;95879.69;;;-1.87;84.43
6433;BME280;3249;42.690;23.260;2023-02-11T08:47:54;95880.59;;;-1.63;81.61
6433;BME280;3249;42.690;23.260;2023-02-11T08:50:23;95883.53;;;-1.69;80.07
6433;BME280;3249;42.690;23.260;2023-02-11T08:52:53;95886.91;;;-1.45;78.05
6433;BME280;3249;42.690;23.260;2023-02-11T08:55:22;95887.75;;;-1.57;77.00
6433;BME280;3249;42.690;23.260;2023-02-11T08:57:51;95870.00;;;-1.80;76.94
6433;BME280;3249;42.690;23.260;2023-02-11T09:00:21;95895.03;;;-1.90;79.60
6433;BME280;3249;42.690;23.260;2023-02-11T09:02:52;95882.31;;;-1.88;78.40
6433;BME280;3249;42.690;23.260;2023-02-11T09:05:22;95888.47;;;-1.80;77.54
6433;BME280;3249;42.690;23.260;2023-02-11T09:07:52;95851.34;;;-2.03;76.62
6433;BME280;3249;42.690;23.260;2023-02-11T09:10:21;95873.28;;;-1.55;75.53
6433;BME280;3249;42.690;23.260;2023-02-11T09:12:50;95880.69;;;-1.16;73.92
6433;BME280;3249;42.690;23.260;2023-02-11T09:15:20;95877.06;;;-1.24;74.03
6433;BME280;3249;42.690;23.260;2023-02-11T09:17:49;95877.78;;;-1.35;72.99
6433;BME280;3249;42.690;23.260;2023-02-11T09:20:21;95876.69;;;-1.43;74.67
6433;BME280;3249;42.690;23.260;2023-02-11T09:22:56;95874.31;;;-1.45;73.69
6433;BME280;3249;42.690;23.260;2023-02-11T09:25:26;95871.97;;;-1.12;72.06
6433;BME280;3249;42.690;23.260;2023-02-11T09:27:55;95858.72;;;-1.39;72.68
6433;BME280;3249;42.690;23.260;2023-02-11T09:30:27;95871.59;;;-0.95;70.70
6433;BME280;3249;42.690;23.260;2023-02-11T09:32:56;95872.78;;;-0.88;70.47
6433;BME280;3249;42.690;23.260;2023-02-11T09:35:28;95871.41;;;-1.04;68.60
6433;BME280;3249;42.690;23.260;2023-02-11T09:37:57;95865.25;;;-1.24;67.40
6433;BME280;3249;42.690;23.260;2023-02-11T09:40:30;95864.06;;;-0.84;67.49
6433;BME280;3249;42.690;23.260;2023-02-11T09:43:03;95823.41;;;-1.15;66.96
6433;BME280;3249;42.690;23.260;2023-02-11T09:45:35;95857.25;;;-0.60;64.80
6433;BME280;3249;42.690;23.260;2023-02-11T09:48:12;95858.66;;;-0.56;61.23
6433;BME280;3249;42.690;23.260;2023-02-11T09:50:49;95840.84;;;-0.54;58.13
6433;BME280;3249;42.690;23.260;2023-02-11T09:53:23;95845.13;;;-0.44;56.54
6433;BME280;3249;42.690;23.260;2023-02-11T09:55:56;95846.53;;;-0.29;57.89
6433;BME280;3249;42.690;23.260;2023-02-11T09:58:29;95830.53;;;-0.40;57.94
6433;BME280;3249;42.690;23.260;2023-02-11T10:01:09;95802.59;;;-0.50;58.43
6433;BME280;3249;42.690;23.260;2023-02-11T10:03:55;95823.00;;;-0.07;53.61
6433;BME280;3249;42.690;23.260;2023-02-11T10:06:40;95812.28;;;0.00;51.10
6433;BME280;3249;42.690;23.260;2023-02-11T10:09:19;95817.25;;;0.02;49.14
6433;BME280;3249;42.690;23.260;2023-02-11T10:12:02;95780.53;;;-0.15;49.18
6433;BME280;3249;42.690;23.260;2023-02-11T10:14:59;95816.31;;;0.14;50.87
6433;BME280;3249;42.690;23.260;2023-02-11T10:17:37;95805.28;;;0.15;50.40
6433;BME280;3249;42.690;23.260;2023-02-11T10:20:20;95799.97;;;-0.04;50.84
6433;BME280;3249;42.690;23.260;2023-02-11T10:22:57;95784.19;;;0.37;49.53
6433;BME280;3249;42.690;23.260;2023-02-11T10:25:34;95777.59;;;0.56;48.66
6433;BME280;3249;42.690;23.260;2023-02-11T10:28:11;95776.59;;;0.26;49.45
6433;BME280;3249;42.690;23.260;2023-02-11T10:30:54;95758.75;;;0.27;48.39
6433;BME280;3249;42.690;23.260;2023-02-11T10:33:35;95738.41;;;0.29;49.64
6433;BME280;3249;42.690;23.260;2023-02-11T10:36:11;95754.53;;;0.70;44.73
6433;BME280;3249;42.690;23.260;2023-02-11T10:38:48;95733.94;;;0.64;44.68
6433;BME280;3249;42.690;23.260;2023-02-11T10:41:23;95724.13;;;0.39;46.46
6433;BME280;3249;42.690;23.260;2023-02-11T10:44:00;95732.53;;;0.71;48.02
6433;BME280;3249;42.690;23.260;2023-02-11T10:46:31;95716.41;;;0.72;47.80
6433;BME280;3249;42.690;23.260;2023-02-11T10:49:01;95729.78;;;0.94;45.58
6433;BME280;3249;42.690;23.260;2023-02-11T10:51:32;95725.63;;;0.93;45.59
6433;BME280;3249;42.690;23.260;2023-02-11T10:54:17;95706.06;;;0.64;47.51
6433;BME280;3249;42.690;23.260;2023-02-11T10:56:50;95695.84;;;0.86;47.60
6433;BME280;3249;42.690;23.260;2023-02-11T10:59:29;95708.19;;;0.79;47.51
6433;BME280;3249;42.690;23.260;2023-02-11T11:02:00;95621.91;;;0.08;48.31
6433;BME280;3249;42.690;23.260;2023-02-11T11:04:38;95691.81;;;0.83;48.40
6433;BME280;3249;42.690;23.260;2023-02-11T11:07:20;95705.97;;;1.27;46.30
6433;BME280;3249;42.690;23.260;2023-02-11T11:09:54;95695.47;;;1.11;46.39
6433;BME280;3249;42.690;23.260;2023-02-11T11:12:30;95692.00;;;1.12;44.24
6433;BME280;3249;42.690;23.260;2023-02-11T11:15:15;95704.22;;;1.27;44.11
6433;BME280;3249;42.690;23.260;2023-02-11T11:17:46;95699.78;;;1.40;44.06
6433;BME280;3249;42.690;23.260;2023-02-11T11:20:23;95688.06;;;1.19;44.63
6433;BME280;3249;42.690;23.260;2023-02-11T11:23:06;95681.13;;;1.51;44.44
6433;BME280;3249;42.690;23.260;2023-02-11T11:25:42;95700.06;;;1.67;43.35
6433;BME280;3249;42.690;23.260;2023-02-11T11:28:21;95692.75;;;1.53;43.13
6433;BME280;3249;42.690;23.260;2023-02-11T11:30:52;95685.41;;;1.50;44.20
6433;BME280;3249;42.690;23.260;2023-02-11T11:33:25;95641.59;;;1.18;43.30
6433;BME280;3249;42.690;23.260;2023-02-11T11:36:00;95681.31;;;1.59;42.36
6433;BME280;3249;42.690;23.260;2023-02-11T11:38:31;95680.44;;;1.79;41.50
6433;BME280;3249;42.690;23.260;2023-02-11T11:41:32;95670.31;;;1.49;43.11
6433;BME280;3249;42.690;23.260;2023-02-11T11:44:07;95680.38;;;1.60;42.84
6433;BME280;3249;42.690;23.260;2023-02-11T11:46:46;95671.91;;;1.80;42.86
6433;BME280;3249;42.690;23.260;2023-02-11T11:49:24;95643.03;;;1.81;41.67
6433;BME280;3249;42.690;23.260;2023-02-11T11:52:10;95670.28;;;1.79;41.99
6433;BME280;3249;42.690;23.260;2023-02-11T11:54:49;95663.31;;;1.62;43.70
6433;BME280;3249;42.690;23.260;2023-02-11T11:57:25;95666.28;;;1.76;43.45
6433;BME280;3249;42.690;23.260;2023-02-11T11:59:57;95651.75;;;1.88;41.29
6433;BME280;3249;42.690;23.260;2023-02-11T12:02:46;95656.78;;;2.18;41.07
6433;BME280;3249;42.690;23.260;2023-02-11T12:05:24;95645.03;;;1.77;41.78
6433;BME280;3249;42.690;23.260;2023-02-11T12:08:05;95649.47;;;1.85;42.13
6433;BME280;3249;42.690;23.260;2023-02-11T12:10:46;95623.19;;;1.95;40.76
6433;BME280;3249;42.690;23.260;2023-02-11T12:13:32;95643.94;;;2.19;41.21
6433;BME280;3249;42.690;23.260;2023-02-11T12:16:16;95639.22;;;2.05;40.62
6433;BME280;3249;42.690;23.260;2023-02-11T12:22:02;95626.03;;;2.21;40.35
6433;BME280;3249;42.690;23.260;2023-02-11T12:24:47;95626.16;;;2.57;38.71
6433;BME280;3249;42.690;23.260;2023-02-11T12:27:32;95605.31;;;2.54;39.33
6433;BME280;3249;42.690;23.260;2023-02-11T12:30:17;95611.72;;;2.39;39.49
6433;BME280;3249;42.690;23.260;2023-02-11T12:32:57;95608.09;;;2.60;38.76
6433;BME280;3249;42.690;23.260;2023-02-11T12:35:37;95570.66;;;1.96;39.36
6433;BME280;3249;42.690;23.260;2023-02-11T12:38:19;95567.06;;;2.08;39.28
6433;BME280;3249;42.690;23.260;2023-02-11T12:40:58;95600.47;;;2.32;39.06
6433;BME280;3249;42.690;23.260;2023-02-11T12:43:35;95601.16;;;2.62;38.37
6433;BME280;3249;42.690;23.260;2023-02-11T12:46:31;95589.25;;;2.44;39.85
6433;BME280;3249;42.690;23.260;2023-02-11T12:52:15;95586.97;;;2.60;38.16
6433;BME280;3249;42.690;23.260;2023-02-11T12:54:53;95577.09;;;2.57;39.29
6433;BME280;3249;42.690;23.260;2023-02-11T12:57:25;95577.44;;;2.81;37.87
6433;BME280;3249;42.690;23.260;2023-02-11T13:00:02;95577.84;;;2.86;37.93
6433;BME280;3249;42.690;23.260;2023-02-11T13:02:40;95572.28;;;3.00;36.64
6433;BME280;3249;42.690;23.260;2023-02-11T13:05:21;95584.31;;;3.17;35.99
6433;BME280;3249;42.690;23.260;2023-02-11T13:07:56;95565.59;;;3.08;36.15
6433;BME280;3249;42.690;23.260;2023-02-11T13:10:31;95587.50;;;3.19;36.41
6433;BME280;3249;42.690;23.260;2023-02-11T13:13:05;95564.75;;;3.17;36.37
6433;BME280;3249;42.690;23.260;2023-02-11T13:15:47;95546.28;;;3.15;36.00
6433;BME280;3249;42.690;23.260;2023-02-11T13:18:33;95575.50;;;3.02;36.12
6433;BME280;3249;42.690;23.260;2023-02-11T13:21:29;95556.91;;;2.92;36.99
6433;BME280;3249;42.690;23.260;2023-02-11T13:24:10;95563.13;;;2.80;37.02
6433;BME280;3249;42.690;23.260;2023-02-11T13:26:45;95565.78;;;2.88;35.76
6433;BME280;3249;42.690;23.260;2023-02-11T13:29:28;95557.25;;;2.79;36.38
6433;BME280;3249;42.690;23.260;2023-02-11T13:32:07;95569.22;;;2.96;36.21
6433;BME280;3249;42.690;23.260;2023-02-11T13:34:55;95564.00;;;2.98;35.47
6433;BME280;3249;42.690;23.260;2023-02-11T13:37:25;95562.53;;;3.05;35.80
6433;BME280;3249;42.690;23.260;2023-02-11T13:40:05;95564.63;;;3.09;35.72
6433;BME280;3249;42.690;23.260;2023-02-11T13:42:47;95556.44;;;3.25;34.63
6433;BME280;3249;42.690;23.260;2023-02-11T13:45:26;95560.38;;;3.37;34.45
6433;BME280;3249;42.690;23.260;2023-02-11T13:47:57;95556.91;;;3.38;34.20
6433;BME280;3249;42.690;23.260;2023-02-11T13:50:33;95556.47;;;3.42;34.01
6433;BME280;3249;42.690;23.260;2023-02-11T13:53:04;95539.84;;;3.21;34.26
6433;BME280;3249;42.690;23.260;2023-02-11T13:55:34;95547.84;;;2.80;36.26